createdAt,value
2018-04-12T00:00:47.573Z,11.90
2018-04-12T00:03:15.084Z,11.90
2018-04-12T00:05:42.600Z,11.90
2018-04-12T00:08:10.081Z,12.00
2018-04-12T00:10:37.641Z,12.00
2018-04-12T00:13:05.167Z,11.80
2018-04-12T00:15:32.692Z,11.80
2018-04-12T00:18:00.217Z,11.70
2018-04-12T00:20:27.703Z,11.70
2018-04-12T00:22:55.220Z,11.70
2018-04-12T00:25:23.503Z,11.30
2018-04-12T00:27:51.022Z,11.30
2018-04-12T00:30:18.588Z,11.20
2018-04-12T00:32:46.135Z,11.20
2018-04-12T00:35:13.629Z,11.30
2018-04-12T00:37:41.907Z,11.20
2018-04-12T00:40:09.499Z,11.20
2018-04-12T00:42:37.066Z,11.20
2018-04-12T00:45:04.538Z,11.10
2018-04-12T00:47:32.097Z,11.10
2018-04-12T00:49:59.661Z,11.10
2018-04-12T00:52:27.166Z,11.20
2018-04-12T00:54:54.716Z,11.20
2018-04-12T00:57:22.999Z,11.00
2018-04-12T00:59:50.524Z,10.90
2018-04-12T01:02:18.023Z,12.50
2018-04-12T01:04:45.565Z,10.80
2018-04-12T01:07:13.151Z,10.80
2018-04-12T01:09:40.693Z,10.70
2018-04-12T01:12:08.246Z,10.60
2018-04-12T01:14:35.746Z,10.50
2018-04-12T01:17:03.277Z,10.50
2018-04-12T01:19:30.805Z,10.40
2018-04-12T01:21:59.109Z,10.30
2018-04-12T01:24:26.640Z,10.30
2018-04-12T01:26:54.935Z,10.30
2018-04-12T01:29:22.471Z,10.30
2018-04-12T01:31:50.740Z,10.40
2018-04-12T01:34:18.242Z,10.40
2018-04-12T01:36:45.788Z,10.50
2018-04-12T01:39:13.321Z,10.50
2018-04-12T01:41:41.641Z,10.50
2018-04-12T01:44:09.163Z,10.50
2018-04-12T01:46:36.723Z,11.10
2018-04-12T01:49:04.287Z,10.30
2018-04-12T01:51:31.847Z,10.40
2018-04-12T01:53:59.380Z,10.30
2018-04-12T01:56:26.872Z,10.20
2018-04-12T01:58:54.380Z,10.10
2018-04-12T02:01:21.922Z,10.10
2018-04-12T02:03:49.431Z,10.10
2018-04-12T02:06:17.743Z,10.00
2018-04-12T02:08:45.278Z,10.00
2018-04-12T02:11:12.819Z,10.20
2018-04-12T02:13:41.157Z,10.10
2018-04-12T02:16:08.737Z,10.20
2018-04-12T02:18:36.262Z,10.20
2018-04-12T02:21:03.761Z,10.10
2018-04-12T02:23:31.306Z,10.20
2018-04-12T02:25:58.869Z,10.00
2018-04-12T02:28:26.496Z,9.90
2018-04-12T02:30:54.025Z,9.80
2018-04-12T02:33:21.572Z,9.80
2018-04-12T02:35:49.119Z,9.70
2018-04-12T02:38:16.646Z,9.70
2018-04-12T02:40:44.159Z,9.70
2018-04-12T05:40:34.979Z,9.70
2018-04-12T05:43:02.435Z,9.90
2018-04-12T05:45:29.879Z,10.00
2018-04-12T05:48:04.968Z,10.20
2018-04-12T07:07:37.348Z,10.30
2018-04-12T07:10:04.790Z,19.00
2018-04-12T07:12:32.226Z,19.10
2018-04-12T07:15:00.434Z,19.00
2018-04-12T07:17:27.872Z,19.00
2018-04-12T07:19:55.306Z,18.90
2018-04-12T07:22:23.520Z,19.40
2018-04-12T07:24:50.973Z,19.40
2018-04-12T07:27:18.434Z,19.00
2018-04-12T07:29:45.889Z,18.70
2018-04-12T07:32:13.317Z,18.30
2018-04-12T07:34:40.762Z,19.00
2018-04-12T07:37:08.974Z,18.80
2018-04-12T07:39:36.428Z,18.80
2018-04-12T07:42:03.851Z,17.90
2018-04-12T07:44:32.059Z,17.10
2018-04-12T07:46:59.494Z,17.10
2018-04-12T07:49:26.934Z,16.70
2018-04-12T07:51:55.151Z,16.70
2018-04-12T07:54:22.604Z,16.60
2018-04-12T07:56:50.039Z,16.80
2018-04-12T07:59:17.481Z,17.10
2018-04-12T08:01:45.687Z,17.70
2018-04-12T08:04:13.127Z,17.70
2018-04-12T08:06:40.559Z,17.60
2018-04-12T08:09:08.778Z,17.30
2018-04-12T08:11:36.194Z,17.30
2018-04-12T08:14:04.402Z,17.40
2018-04-12T08:16:31.839Z,17.40
2018-04-12T08:18:59.278Z,17.60
2018-04-12T08:21:27.499Z,17.60
2018-04-12T08:23:54.941Z,17.60
2018-04-12T08:26:22.393Z,17.70
2018-04-12T08:28:49.838Z,18.20
2018-04-12T08:31:18.032Z,18.00
2018-04-12T08:33:45.484Z,18.00
2018-04-12T08:36:12.939Z,18.20
2018-04-12T08:38:40.367Z,18.40
2018-04-12T08:41:08.571Z,18.60
2018-04-12T08:43:36.008Z,18.50
2018-04-12T08:46:03.440Z,18.30
2018-04-12T08:48:31.655Z,18.60
2018-04-12T08:50:59.100Z,18.50
2018-04-12T08:53:26.526Z,18.60
2018-04-12T08:55:54.726Z,18.80
2018-04-12T08:58:22.159Z,18.80
2018-04-12T09:00:50.367Z,19.20
2018-04-12T09:03:17.787Z,19.20
2018-04-12T09:05:45.987Z,19.50
2018-04-12T09:08:13.410Z,19.50
2018-04-12T09:10:41.614Z,19.80
2018-04-12T09:13:09.042Z,19.80
2018-04-12T09:15:37.247Z,19.50
2018-04-12T09:18:04.686Z,19.50
2018-04-12T09:20:32.911Z,19.70
2018-04-12T09:23:00.348Z,19.70
2018-04-12T09:25:27.787Z,19.80
2018-04-12T09:27:55.232Z,20.40
2018-04-12T09:30:22.669Z,21.10
2018-04-12T09:32:51.715Z,20.10
2018-04-12T09:35:19.157Z,20.10
2018-04-12T09:37:46.600Z,20.50
2018-04-12T09:40:14.026Z,21.20
2018-04-12T09:42:41.459Z,22.10
2018-04-12T09:45:08.894Z,23.10
2018-04-12T09:47:36.398Z,23.00
2018-04-12T09:50:03.818Z,23.40
2018-04-12T09:52:31.258Z,22.60
2018-04-12T09:54:58.688Z,22.00
2018-04-12T09:57:26.132Z,21.80
2018-04-12T09:59:54.460Z,23.20
2018-04-12T10:02:27.341Z,23.20
2018-04-12T10:05:05.548Z,23.40
2018-04-12T10:07:38.543Z,23.40
2018-04-12T10:10:06.119Z,23.90
2018-04-12T10:12:33.637Z,23.40
2018-04-12T10:15:01.087Z,23.60
2018-04-12T10:17:28.545Z,22.90
2018-04-12T10:19:57.166Z,23.80
2018-04-12T10:22:24.607Z,23.80
2018-04-12T10:24:52.043Z,22.90
2018-04-12T10:27:19.502Z,23.40
2018-04-12T10:29:46.938Z,24.00
2018-04-12T10:32:14.371Z,24.70
2018-04-12T10:34:42.604Z,24.10
2018-04-12T10:37:10.002Z,24.00
2018-04-12T10:39:38.226Z,25.50
2018-04-12T10:42:05.635Z,25.40
2018-04-12T10:44:33.844Z,24.00
2018-04-12T10:47:01.280Z,23.90
2018-04-12T10:49:28.724Z,24.40
2018-04-12T10:51:56.964Z,25.00
2018-04-12T10:54:24.361Z,24.90
2018-04-12T10:56:52.558Z,25.40
2018-04-12T10:59:19.997Z,25.40
2018-04-12T11:01:47.421Z,25.70
2018-04-12T11:04:14.859Z,25.70
2018-04-12T11:06:42.294Z,26.50
2018-04-12T11:09:09.742Z,25.20
2018-04-12T11:11:37.198Z,24.70
2018-04-12T11:14:04.646Z,23.90
2018-04-12T11:16:32.070Z,23.10
2018-04-12T11:19:00.270Z,22.90
2018-04-12T11:21:27.783Z,22.90
2018-04-12T11:23:55.269Z,22.90
2018-04-12T11:26:23.469Z,24.20
2018-04-12T11:28:50.939Z,24.10
2018-04-12T11:31:18.366Z,23.50
2018-04-12T11:33:45.803Z,23.20
2018-04-12T11:36:13.991Z,23.00
2018-04-12T11:38:41.423Z,23.00
2018-04-12T11:41:09.628Z,23.20
2018-04-12T11:43:37.062Z,23.10
2018-04-12T11:46:05.254Z,23.40
2018-04-12T11:48:32.691Z,23.40
2018-04-12T11:51:00.891Z,22.90
2018-04-12T11:53:28.343Z,22.80
2018-04-12T11:55:55.801Z,22.60
2018-04-12T11:58:23.194Z,22.70
2018-04-12T12:00:50.643Z,22.40
2018-04-12T12:03:18.081Z,22.50
2018-04-12T12:05:45.519Z,22.40
2018-04-12T12:08:12.944Z,22.20
2018-04-12T12:10:40.383Z,22.10
2018-04-12T12:13:07.807Z,22.10
2018-04-12T12:15:35.252Z,21.70
2018-04-12T12:18:02.672Z,21.80
2018-04-12T12:20:30.888Z,21.60
2018-04-12T12:22:58.318Z,21.60
2018-04-12T12:25:25.763Z,21.00
2018-04-12T12:27:53.971Z,21.10
2018-04-12T12:30:21.414Z,21.00
2018-04-12T12:32:48.860Z,21.30
2018-04-12T12:35:17.057Z,21.20
2018-04-12T12:37:44.496Z,21.10
2018-04-12T12:40:11.984Z,21.50
2018-04-12T12:42:39.420Z,21.40
2018-04-12T12:45:06.864Z,21.60
2018-04-12T12:47:34.291Z,21.60
2018-04-12T12:50:01.727Z,21.40
2018-04-12T12:52:29.166Z,21.60
2018-04-12T12:54:56.604Z,21.50
2018-04-12T12:57:24.076Z,21.60
2018-04-12T12:59:51.519Z,21.70
2018-04-12T13:02:19.346Z,21.70
2018-04-12T13:04:46.842Z,21.50
2018-04-12T13:07:17.876Z,21.50
2018-04-12T13:09:46.566Z,21.40
2018-04-12T13:12:14.010Z,21.50
2018-04-12T13:14:41.442Z,21.60
2018-04-12T13:17:08.883Z,21.80
2018-04-12T13:19:36.306Z,20.30
2018-04-12T13:22:03.750Z,22.00
2018-04-12T13:24:31.184Z,21.90
2018-04-12T13:26:58.628Z,22.50
2018-04-12T13:29:26.830Z,22.50
2018-04-12T13:31:54.267Z,22.50
2018-04-12T13:34:21.774Z,22.40
2018-04-12T13:36:49.219Z,22.40
2018-04-12T13:39:16.638Z,22.20
2018-04-12T13:41:44.088Z,22.20
2018-04-12T13:44:12.310Z,22.20
2018-04-12T13:46:39.899Z,22.20
2018-04-12T13:49:07.382Z,22.10
2018-04-12T13:51:34.825Z,22.30
2018-04-12T13:54:03.038Z,22.00
2018-04-12T13:56:30.481Z,21.90
2018-04-12T13:58:57.902Z,22.20
2018-04-12T14:01:26.119Z,22.40
2018-04-12T14:03:53.559Z,22.30
2018-04-12T14:06:20.990Z,22.50
2018-04-12T14:08:50.087Z,22.40
2018-04-12T14:11:17.659Z,22.40
2018-04-12T14:13:45.865Z,22.60
2018-04-12T14:16:13.295Z,22.60
2018-04-12T14:18:40.730Z,22.70
2018-04-12T14:21:08.945Z,22.60
2018-04-12T14:23:36.381Z,22.60
2018-04-12T14:26:03.810Z,22.30
2018-04-12T14:28:32.012Z,22.70
2018-04-12T14:30:59.474Z,22.60
2018-04-12T14:33:26.914Z,22.10
2018-04-12T14:35:54.338Z,22.30
2018-04-12T14:38:21.779Z,22.50
2018-04-12T14:40:49.219Z,22.30
2018-04-12T14:43:16.670Z,22.00
2018-04-12T14:45:44.117Z,21.90
2018-04-12T14:48:11.570Z,21.90
2018-04-12T14:50:39.007Z,21.70
2018-04-12T14:53:06.439Z,21.40
2018-04-12T14:55:33.871Z,21.40
2018-04-12T14:58:01.317Z,21.50
2018-04-12T15:00:28.751Z,21.60
2018-04-12T15:02:56.194Z,21.60
2018-04-12T15:05:23.627Z,21.40
2018-04-12T15:07:51.846Z,21.60
2018-04-12T15:10:19.280Z,21.50
2018-04-12T15:12:46.717Z,21.60
2018-04-12T15:15:14.922Z,21.50
2018-04-12T15:17:42.374Z,21.50
2018-04-12T15:20:09.819Z,21.60
2018-04-12T15:22:37.266Z,21.60
2018-04-12T15:25:05.490Z,21.60
2018-04-12T15:27:32.931Z,21.60
2018-04-12T15:30:00.375Z,21.50
2018-04-12T15:32:27.831Z,21.50
2018-04-12T15:34:55.258Z,21.40
2018-04-12T15:37:23.484Z,21.60
2018-04-12T15:39:50.927Z,21.50
2018-04-12T15:42:18.359Z,21.60
2018-04-12T15:44:45.785Z,21.40
2018-04-12T15:47:13.215Z,21.30
2018-04-12T15:49:40.648Z,21.30
2018-04-12T15:52:08.122Z,21.30
2018-04-12T15:54:35.559Z,21.20
2018-04-12T15:57:02.992Z,21.10
2018-04-12T15:59:30.426Z,21.40
2018-04-12T16:01:58.774Z,21.50
2018-04-12T16:04:26.199Z,21.50
2018-04-12T16:06:53.678Z,21.40
2018-04-12T16:09:21.099Z,21.20
2018-04-12T16:11:48.527Z,21.30
2018-04-12T16:14:16.743Z,20.90
2018-04-12T16:16:44.202Z,20.90
2018-04-12T16:19:11.664Z,20.90
2018-04-12T16:21:39.094Z,20.80
2018-04-12T16:24:06.583Z,20.70
2018-04-12T16:26:34.023Z,20.60
2018-04-12T16:29:01.463Z,20.50
2018-04-12T16:31:28.894Z,20.40
2018-04-12T16:33:56.318Z,20.40
2018-04-12T16:36:23.755Z,20.30
2018-04-12T16:38:51.186Z,20.30
2018-04-12T16:41:18.624Z,20.20
2018-04-12T16:43:46.830Z,20.10
2018-04-12T16:46:14.271Z,20.10
2018-04-12T16:48:41.707Z,20.10
2018-04-12T16:51:09.910Z,20.00
2018-04-12T16:53:37.400Z,20.00
2018-04-12T16:56:04.842Z,19.90
2018-04-12T16:58:32.283Z,19.90
2018-04-12T17:00:59.723Z,19.80
2018-04-12T17:03:27.161Z,19.70
2018-04-12T17:05:55.363Z,19.50
2018-04-12T17:08:22.793Z,19.50
2018-04-12T17:10:50.999Z,19.50
2018-04-12T17:13:18.675Z,19.50
2018-04-12T17:15:46.129Z,19.50
2018-04-12T17:18:13.556Z,19.40
2018-04-12T17:20:41.623Z,19.30
2018-04-12T17:23:09.067Z,19.30
2018-04-12T17:25:36.595Z,19.30
2018-04-12T17:28:04.050Z,19.40
2018-04-12T17:30:31.519Z,19.50
2018-04-12T17:32:58.948Z,19.40
2018-04-12T17:35:26.723Z,19.20
2018-04-12T17:37:54.169Z,19.00
2018-04-12T17:40:21.626Z,18.80
2018-04-12T17:42:49.110Z,18.80
2018-04-12T17:45:16.582Z,18.70
2018-04-12T17:47:44.791Z,18.60
2018-04-12T17:50:12.246Z,18.50
2018-04-12T17:52:39.672Z,18.50
2018-04-12T17:55:07.883Z,18.40
2018-04-12T17:57:35.333Z,18.40
2018-04-12T18:00:02.788Z,18.30
2018-04-12T18:02:30.243Z,18.10
2018-04-12T18:04:57.686Z,17.90
2018-04-12T18:07:25.127Z,17.70
2018-04-12T18:09:53.339Z,17.20
2018-04-12T18:12:20.786Z,17.10
2018-04-12T18:14:48.245Z,16.90
2018-04-12T18:17:15.699Z,16.70
2018-04-12T18:19:43.155Z,16.50
2018-04-12T18:22:10.621Z,16.30
2018-04-12T18:24:38.057Z,16.10
2018-04-12T18:27:05.496Z,16.00
2018-04-12T18:29:33.720Z,16.10
2018-04-12T18:32:01.172Z,16.10
2018-04-12T18:34:28.619Z,16.00
2018-04-12T18:36:57.366Z,15.90
2018-04-12T18:39:25.622Z,15.40
2018-04-12T18:41:53.035Z,15.40
2018-04-12T18:44:20.487Z,15.10
2018-04-12T18:46:47.951Z,15.00
2018-04-12T18:49:15.970Z,14.80
2018-04-12T18:51:44.189Z,14.50
2018-04-12T18:54:11.640Z,14.50
2018-04-12T18:56:39.091Z,14.40
2018-04-12T18:59:06.555Z,14.30
2018-04-12T19:01:34.010Z,14.20
2018-04-12T19:04:01.464Z,14.20
2018-04-12T19:06:28.924Z,14.00
2018-04-12T19:08:56.350Z,13.90
2018-04-12T19:11:23.787Z,13.70
2018-04-12T19:13:52.011Z,13.80
2018-04-12T19:16:19.467Z,13.80
2018-04-12T19:18:46.900Z,13.80
2018-04-12T19:21:14.343Z,13.70
2018-04-12T19:23:42.553Z,13.40
2018-04-12T19:26:10.029Z,13.40
2018-04-12T19:28:37.472Z,13.20
2018-04-12T19:31:04.914Z,13.20
2018-04-12T19:33:32.355Z,13.30
2018-04-12T19:35:59.811Z,13.40
2018-04-12T19:38:27.259Z,11.20
2018-04-12T19:40:55.484Z,13.00
2018-04-12T19:43:22.948Z,13.00
2018-04-12T19:45:50.402Z,12.90
2018-04-12T19:48:17.863Z,12.80
2018-04-12T19:50:45.307Z,12.70
2018-04-12T19:53:12.751Z,12.70
2018-04-12T19:55:40.207Z,12.60
2018-04-12T19:58:07.658Z,12.40
2018-04-12T20:00:35.195Z,12.30
2018-04-12T20:03:02.663Z,12.10
2018-04-12T20:05:30.126Z,12.10
2018-04-12T20:07:57.671Z,11.90
2018-04-12T20:10:25.079Z,11.80
2018-04-12T20:12:52.539Z,11.70
2018-04-12T20:15:19.972Z,11.50
2018-04-12T20:17:47.446Z,11.60
2018-04-12T20:20:14.901Z,11.40
2018-04-12T20:22:43.118Z,11.40
2018-04-12T20:25:10.550Z,11.40
2018-04-12T20:27:44.529Z,11.10
2018-04-12T20:30:11.996Z,11.10
2018-04-12T20:32:39.456Z,11.00
2018-04-12T20:40:41.425Z,10.90
2018-04-12T20:43:08.892Z,10.90
2018-04-12T20:45:36.461Z,10.80
2018-04-12T20:50:49.811Z,10.90
2018-04-12T20:53:17.311Z,10.80
2018-04-12T20:55:44.803Z,10.80
2018-04-12T20:58:12.257Z,10.70
2018-04-12T21:00:39.709Z,10.60
2018-04-12T21:03:07.188Z,10.60
2018-04-12T21:05:34.642Z,10.50
2018-04-12T21:08:02.104Z,10.40
2018-04-12T21:10:29.759Z,10.30
2018-04-12T21:12:57.209Z,10.30
2018-04-12T21:15:24.745Z,10.20
2018-04-12T21:17:52.479Z,10.20
2018-04-12T21:43:51.877Z,9.90
2018-04-12T21:46:19.427Z,9.90
2018-04-12T21:48:46.907Z,9.80
2018-04-12T21:51:14.599Z,9.80
2018-04-12T21:53:42.113Z,9.90
2018-04-12T21:56:09.563Z,9.90
2018-04-12T22:09:20.013Z,9.20
2018-04-12T22:11:48.679Z,9.20
